Terminal Aerodrome Forecast
Issued by NWS

Current Version | Previous Version | Text Only | Print | Product List | Glossary Off
Versions: 1 2 3 4 5 6 7 8 9 10 11 12 13 14 15 16 17 18 19

000
FTUS41 KILN 220720 AAA
TAFLUK
TAF AMD
KLUK 220720Z 2207/2306 VRB03KT P6SM BKN100
      TEMPO 2207/2209 00000KT 1/2SM FG VV002
     FM220900 18006KT P6SM BKN100 WS020/21045KT
     FM221600 18014G22KT P6SM VCSH SCT020 BKN080 WS020/19045KT
     FM221900 18012G23KT 4SM -SHRA BR OVC020
     FM222300 18010KT P6SM VCSH SCT015 BKN030
     FM230300 22012KT P6SM SCT035 BKN060=

USA.gov is the U.S. government's official web portal to all federal, state and local government web resources and services.